createdAt,value
2019-05-10T00:01:37.987Z,93373.82
2019-05-10T00:04:24.664Z,93375.02
2019-05-10T00:07:11.274Z,93378.27
2019-05-10T00:09:39.135Z,93375.11
2019-05-10T00:12:12.249Z,93369.65
2019-05-10T00:14:51.631Z,93373.81
2019-05-10T00:17:21.172Z,93361.05
2019-05-10T00:19:49.972Z,93367.76
2019-05-10T00:22:18.902Z,93367.34
2019-05-10T00:25:02.337Z,93367.00
2019-05-10T00:27:17.986Z,93370.09
2019-05-10T00:29:46.608Z,93376.75
2019-05-10T00:32:15.293Z,93383.81
2019-05-10T00:34:43.991Z,93381.34
2019-05-10T00:37:12.591Z,93376.16
2019-05-10T00:39:41.305Z,93380.00
2019-05-10T00:42:09.973Z,93379.12
2019-05-10T00:44:38.617Z,93393.06
2019-05-10T00:47:07.344Z,93392.69
2019-05-10T00:49:35.975Z,93397.80
2019-05-10T00:52:04.648Z,93401.48
2019-05-10T00:54:33.264Z,93403.64
2019-05-10T00:57:01.945Z,93404.08
2019-05-10T00:59:30.643Z,93401.11
2019-05-10T01:01:59.323Z,93406.43
2019-05-10T01:04:27.933Z,93406.43
2019-05-10T01:06:57.420Z,93392.80
2019-05-10T01:09:26.060Z,93406.87
2019-05-10T01:11:54.746Z,93409.37
2019-05-10T01:14:23.420Z,93415.55
2019-05-10T01:16:52.040Z,93409.89
2019-05-10T01:19:20.714Z,93410.29
2019-05-10T01:21:49.327Z,93405.63
2019-05-10T01:24:18.027Z,93414.82
2019-05-10T01:26:46.642Z,93416.19
2019-05-10T01:29:17.369Z,93411.37
2019-05-10T01:31:45.657Z,93415.53
2019-05-10T01:34:14.268Z,93417.55
2019-05-10T01:36:42.969Z,93424.30
2019-05-10T01:39:11.679Z,93430.52
2019-05-10T01:41:40.385Z,93435.01
2019-05-10T01:44:09.058Z,93443.84
2019-05-10T01:46:37.707Z,93451.16
2019-05-10T01:49:06.405Z,93455.44
2019-05-10T01:51:35.052Z,93461.47
2019-05-10T01:54:03.694Z,93455.93
2019-05-10T01:56:32.384Z,93460.33
2019-05-10T01:59:00.999Z,93470.23
2019-05-10T02:01:29.670Z,93470.88
2019-05-10T02:03:58.345Z,93466.58
2019-05-10T02:06:27.060Z,93461.80
2019-05-10T02:08:55.658Z,93457.95
2019-05-10T02:11:24.429Z,93453.75
2019-05-10T02:13:53.083Z,93453.14
2019-05-10T02:16:21.808Z,93450.33
2019-05-10T02:18:50.492Z,93444.94
2019-05-10T02:21:19.184Z,93448.61
2019-05-10T02:23:47.805Z,93444.29
2019-05-10T02:26:16.487Z,93439.75
2019-05-10T02:28:45.276Z,93441.43
2019-05-10T02:31:13.909Z,93448.94
2019-05-10T02:33:42.627Z,93452.78
2019-05-10T02:36:11.255Z,93455.62
2019-05-10T02:38:39.973Z,93452.64
2019-05-10T02:41:08.686Z,93462.48
2019-05-10T02:43:37.320Z,93469.02
2019-05-10T02:46:06.021Z,93476.69
2019-05-10T02:48:34.685Z,93475.69
2019-05-10T02:51:03.388Z,93477.85
2019-05-10T02:53:32.084Z,93487.02
2019-05-10T02:56:00.685Z,93487.84
2019-05-10T02:58:30.959Z,93486.05
2019-05-10T03:01:03.931Z,93481.44
2019-05-10T03:03:32.968Z,93486.97
2019-05-10T03:06:03.411Z,93483.78
2019-05-10T03:08:50.051Z,93482.13
2019-05-10T03:11:18.907Z,93485.44
2019-05-10T03:13:52.179Z,93484.60
2019-05-10T03:16:23.001Z,93489.70
2019-05-10T03:18:53.300Z,93496.42
2019-05-10T03:21:24.505Z,93495.44
2019-05-10T03:23:53.513Z,93499.05
2019-05-10T03:26:22.198Z,93487.70
2019-05-10T03:28:50.909Z,93492.02
2019-05-10T03:31:19.679Z,93492.20
2019-05-10T03:33:55.420Z,93490.65
2019-05-10T03:36:18.704Z,93496.47
2019-05-10T03:38:47.492Z,93499.41
2019-05-10T03:41:16.101Z,93504.22
2019-05-10T03:43:45.005Z,93502.06
2019-05-10T03:46:13.614Z,93507.52
2019-05-10T03:48:42.291Z,93510.52
2019-05-10T03:51:10.900Z,93519.73
2019-05-10T03:53:39.608Z,93524.38
2019-05-10T03:56:08.242Z,93515.85
2019-05-10T03:58:36.923Z,93515.39
2019-05-10T04:01:05.565Z,93506.64
2019-05-10T04:03:34.273Z,93517.41
2019-05-10T04:06:02.880Z,93514.77
2019-05-10T04:08:31.582Z,93521.23
2019-05-10T04:11:00.197Z,93525.88
2019-05-10T04:13:28.850Z,93531.50
2019-05-10T04:15:57.463Z,93533.94
2019-05-10T04:18:26.152Z,93530.20
2019-05-10T04:20:54.773Z,93524.94
2019-05-10T04:23:23.457Z,93523.93
2019-05-10T04:25:52.077Z,93527.31
2019-05-10T04:28:20.765Z,93538.52
2019-05-10T04:30:49.472Z,93538.52
2019-05-10T04:33:18.148Z,93544.31
2019-05-10T04:35:46.772Z,93547.98
2019-05-10T04:38:15.455Z,93547.83
2019-05-10T04:40:44.071Z,93555.31
2019-05-10T04:43:12.767Z,93557.47
2019-05-10T04:45:41.387Z,93554.52
2019-05-10T04:48:10.076Z,93555.71
2019-05-10T04:50:38.780Z,93553.13
2019-05-10T04:53:07.484Z,93564.05
2019-05-10T04:55:36.726Z,93564.55
2019-05-10T04:58:05.414Z,93559.30
2019-05-10T05:00:35.625Z,93560.73
2019-05-10T05:03:04.327Z,93564.30
2019-05-10T05:05:33.023Z,93563.86
2019-05-10T05:08:01.640Z,93580.62
2019-05-10T05:10:30.330Z,93567.55
2019-05-10T05:12:58.963Z,93570.86
2019-05-10T05:15:27.642Z,93576.78
2019-05-10T05:17:56.251Z,93578.53
2019-05-10T05:20:24.941Z,93594.34
2019-05-10T05:22:53.544Z,93589.77
2019-05-10T05:25:22.281Z,93586.08
2019-05-10T05:28:06.415Z,93588.59
2019-05-10T05:30:21.289Z,93580.95
2019-05-10T05:32:49.955Z,93586.80
2019-05-10T05:35:18.643Z,93587.87
2019-05-10T05:37:47.345Z,93586.36
2019-05-10T05:40:15.980Z,93581.61
2019-05-10T05:42:44.664Z,93572.59
2019-05-10T05:45:13.485Z,93575.84
2019-05-10T05:47:44.790Z,93579.53
2019-05-10T05:50:12.527Z,93572.48
2019-05-10T05:52:41.271Z,93579.61
2019-05-10T05:55:09.994Z,93577.39
2019-05-10T05:57:38.611Z,93578.33
2019-05-10T06:00:08.012Z,93579.85
2019-05-10T06:02:43.957Z,93584.87
2019-05-10T06:05:07.048Z,93580.05
2019-05-10T06:07:38.112Z,93579.84
2019-05-10T06:10:10.142Z,93581.17
2019-05-10T06:12:37.508Z,93583.09
2019-05-10T06:15:07.684Z,93583.54
2019-05-10T06:17:36.368Z,93585.06
2019-05-10T06:20:07.619Z,93589.56
2019-05-10T06:22:38.037Z,93583.55
2019-05-10T06:25:08.445Z,93578.45
2019-05-10T06:27:41.245Z,93576.64
2019-05-10T06:30:08.232Z,93580.49
2019-05-10T06:32:36.936Z,93572.52
2019-05-10T06:35:06.965Z,93571.02
2019-05-10T06:37:36.234Z,93575.25
2019-05-10T06:40:06.376Z,93573.66
2019-05-10T06:42:36.204Z,93573.05
2019-05-10T06:45:14.481Z,93570.09
2019-05-10T06:47:42.087Z,93577.27
2019-05-10T06:50:08.245Z,93566.94
2019-05-10T06:52:36.931Z,93579.77
2019-05-10T06:55:08.623Z,93573.91
2019-05-10T06:57:37.321Z,93570.81
2019-05-10T07:00:08.076Z,93565.91
2019-05-10T07:02:36.896Z,93569.75
2019-05-10T07:05:05.929Z,93578.37
2019-05-10T07:07:43.715Z,93584.19
2019-05-10T07:10:15.810Z,93584.09
2019-05-10T07:12:38.013Z,93585.96
2019-05-10T07:15:09.406Z,93594.97
2019-05-10T07:17:43.672Z,93591.42
2019-05-10T07:20:09.455Z,93593.30
2019-05-10T07:22:38.194Z,93589.70
2019-05-10T07:25:07.854Z,93594.16
2019-05-10T07:27:38.512Z,93598.70
2019-05-10T07:30:07.416Z,93605.04
2019-05-10T07:32:36.072Z,93592.67
2019-05-10T07:35:06.488Z,93598.77
2019-05-10T07:37:35.684Z,93598.34
2019-05-10T07:40:06.912Z,93595.70
2019-05-10T07:42:39.758Z,93593.91
2019-05-10T07:45:07.301Z,93584.59
2019-05-10T07:47:36.017Z,93588.23
2019-05-10T07:50:09.905Z,93590.36
2019-05-10T07:52:43.175Z,93591.20
2019-05-10T07:55:10.556Z,93592.45
2019-05-10T07:57:41.033Z,93594.81
2019-05-10T08:00:10.867Z,93582.45
2019-05-10T08:02:44.322Z,93590.52
2019-05-10T08:05:13.731Z,93589.17
2019-05-10T08:07:43.697Z,93591.00
2019-05-10T08:10:12.633Z,93589.22
2019-05-10T08:12:45.520Z,93589.52
2019-05-10T08:15:11.711Z,93587.91
2019-05-10T08:17:45.383Z,93593.83
2019-05-10T08:20:25.644Z,93581.13
2019-05-10T08:22:45.919Z,93585.44
2019-05-10T08:25:15.024Z,93580.78
2019-05-10T08:27:50.262Z,93577.66
2019-05-10T08:30:25.077Z,93579.14
2019-05-10T08:32:43.569Z,93574.78
2019-05-10T08:35:17.214Z,93576.08
2019-05-10T08:37:43.456Z,93577.70
2019-05-10T08:40:12.884Z,93582.63
2019-05-10T08:42:48.270Z,93578.22
2019-05-10T08:45:13.069Z,93581.84
2019-05-10T08:47:42.720Z,93583.75
2019-05-10T08:50:26.319Z,93581.39
2019-05-10T08:52:42.501Z,93581.13
2019-05-10T08:55:12.343Z,93579.58
2019-05-10T09:00:41.792Z,93578.50
2019-05-10T09:03:00.859Z,93579.39
2019-05-10T09:05:31.184Z,93563.64
2019-05-10T09:07:58.664Z,93569.27
2019-05-10T09:10:27.366Z,93567.37
2019-05-10T09:12:58.143Z,93575.37
2019-05-10T09:15:26.464Z,93570.30
2019-05-10T09:17:58.241Z,93578.45
2019-05-10T09:20:26.529Z,93575.45
2019-05-10T09:22:55.681Z,93573.86
2019-05-10T09:25:29.163Z,93580.41
2019-05-10T09:27:54.711Z,93574.46
2019-05-10T09:33:54.231Z,93554.88
2019-05-10T09:36:30.471Z,93557.09
2019-05-10T09:38:53.024Z,93562.30
2019-05-10T09:41:22.634Z,93567.96
2019-05-10T09:43:53.773Z,93565.50
2019-05-10T09:46:22.885Z,93567.84
2019-05-10T09:48:54.486Z,93569.69
2019-05-10T09:51:28.009Z,93569.33
2019-05-10T09:53:53.084Z,93573.48
2019-05-10T09:56:22.032Z,93572.48
2019-05-10T09:58:50.706Z,93566.19
2019-05-10T10:01:21.770Z,93565.09
2019-05-10T10:03:49.777Z,93568.20
2019-05-10T10:06:18.413Z,93574.56
2019-05-10T10:08:51.171Z,93568.76
2019-05-10T10:11:18.723Z,93573.09
2019-05-10T10:13:50.140Z,93574.15
2019-05-10T10:16:19.539Z,93569.73
2019-05-10T10:18:48.220Z,93573.36
2019-05-10T10:21:19.000Z,93575.05
2019-05-10T10:23:47.376Z,93576.70
2019-05-10T10:26:18.803Z,93584.89
2019-05-10T10:28:49.835Z,93581.73
2019-05-10T10:31:28.860Z,93587.88
2019-05-10T10:33:57.376Z,93592.09
2019-05-10T10:36:17.618Z,93586.02
2019-05-10T10:38:49.496Z,93587.82
2019-05-10T10:41:25.642Z,93585.63
2019-05-10T10:43:48.404Z,93586.92
2019-05-10T10:46:19.819Z,93576.80
2019-05-10T10:48:49.103Z,93578.52
2019-05-10T10:51:18.372Z,93586.84
2019-05-10T10:53:47.221Z,93582.55
2019-05-10T10:56:17.606Z,93588.92
2019-05-10T10:58:49.668Z,93593.66
2019-05-10T11:01:21.384Z,93588.58
2019-05-10T11:03:49.006Z,93583.78
2019-05-10T11:06:17.594Z,93577.91
2019-05-10T11:08:46.271Z,93577.64
2019-05-10T11:11:14.944Z,93582.52
2019-05-10T11:13:45.810Z,93591.72
2019-05-10T11:16:15.686Z,93582.39
2019-05-10T11:18:44.385Z,93579.70
2019-05-10T11:21:13.104Z,93591.03
2019-05-10T11:23:42.050Z,93585.22
2019-05-10T11:26:11.043Z,93592.16
2019-05-10T11:28:44.244Z,93585.87
2019-05-10T11:31:11.387Z,93587.19
2019-05-10T11:33:41.420Z,93592.83
2019-05-10T11:36:11.437Z,93593.17
2019-05-10T11:38:42.064Z,93596.47
2019-05-10T11:41:18.626Z,93594.52
2019-05-10T11:43:41.895Z,93597.50
2019-05-10T11:46:11.743Z,93595.92
2019-05-10T11:48:42.226Z,93613.41
2019-05-10T11:51:15.878Z,93607.23
2019-05-10T11:53:41.662Z,93613.13
2019-05-10T11:58:49.056Z,93606.63
2019-05-10T12:01:17.722Z,93618.73
2019-05-10T12:03:42.440Z,93620.98
2019-05-10T12:06:12.157Z,93618.80
2019-05-10T12:08:41.832Z,93619.91
2019-05-10T12:11:25.501Z,93627.37
2019-05-10T12:13:41.351Z,93629.69
2019-05-10T12:16:16.115Z,93631.86
2019-05-10T12:18:46.677Z,93633.05
2019-05-10T12:21:12.492Z,93643.36
2019-05-10T12:23:50.240Z,93643.11
2019-05-10T12:26:16.032Z,93614.01
2019-05-10T12:28:41.882Z,93662.00
2019-05-10T12:31:15.159Z,93666.66
2019-05-10T12:33:44.756Z,93670.38
2019-05-10T12:36:22.353Z,93683.91
2019-05-10T12:38:41.650Z,93676.23
2019-05-10T12:41:10.280Z,93688.50
2019-05-10T12:43:40.879Z,93682.75
2019-05-10T12:46:10.459Z,93679.62
2019-05-10T12:48:39.488Z,93682.73
2019-05-10T12:51:11.877Z,93690.08
2019-05-10T12:53:44.600Z,93687.69
2019-05-10T12:56:08.965Z,93686.93
2019-05-10T12:58:37.642Z,93687.72
2019-05-10T13:01:06.317Z,93686.94
2019-05-10T13:03:35.008Z,93697.14
2019-05-10T13:06:03.619Z,93693.48
2019-05-10T13:08:32.358Z,93692.14
2019-05-10T13:11:00.978Z,93687.17
2019-05-10T13:13:30.294Z,93686.96
2019-05-10T13:16:03.594Z,93680.67
2019-05-10T13:20:59.854Z,93686.94
2019-05-10T13:23:28.442Z,93682.26
2019-05-10T13:25:57.142Z,93680.38
2019-05-10T13:28:25.852Z,93682.66
2019-05-10T13:30:54.549Z,93676.70
2019-05-10T13:33:28.801Z,93681.61
2019-05-10T13:35:56.370Z,93670.86
2019-05-10T13:38:25.720Z,93667.70
2019-05-10T13:40:54.382Z,93669.58
2019-05-10T13:43:26.507Z,93670.85
2019-05-10T13:45:53.515Z,93664.04
2019-05-10T13:48:26.042Z,93659.99
2019-05-10T13:50:52.561Z,93664.24
2019-05-10T13:53:23.279Z,93660.25
2019-05-10T13:55:51.671Z,93663.18
2019-05-10T13:58:20.383Z,93647.14
2019-05-10T14:00:49.105Z,93655.88
2019-05-10T14:03:17.715Z,93640.22
2019-05-10T14:05:46.362Z,93648.78
2019-05-10T14:08:15.077Z,93652.25
2019-05-10T14:10:43.689Z,93648.61
2019-05-10T14:13:16.429Z,93657.63
2019-05-10T14:15:42.703Z,93657.34
2019-05-10T14:18:11.379Z,93657.16
2019-05-10T14:20:40.057Z,93651.30
2019-05-10T14:23:08.699Z,93651.64
2019-05-10T14:25:39.000Z,93650.52
2019-05-10T14:28:09.565Z,93646.68
2019-05-10T14:30:38.403Z,93655.92
2019-05-10T14:33:08.672Z,93654.13
2019-05-10T14:35:37.419Z,93652.89
2019-05-10T14:38:08.278Z,93658.37
2019-05-10T14:40:36.494Z,93661.37
2019-05-10T14:43:05.220Z,93660.21
2019-05-10T14:45:34.001Z,93664.98
2019-05-10T14:48:02.790Z,93665.83
2019-05-10T14:50:31.521Z,93675.88
2019-05-10T14:53:00.737Z,93669.88
2019-05-10T14:55:35.058Z,93679.41
2019-05-10T14:57:59.877Z,93681.77
2019-05-10T15:00:28.483Z,93685.31
2019-05-10T15:03:01.991Z,93690.05
2019-05-10T15:05:27.675Z,93687.86
2019-05-10T15:07:56.294Z,93678.02
2019-05-10T15:10:24.996Z,93686.14
2019-05-10T15:12:53.625Z,93683.75
2019-05-10T15:15:22.285Z,93684.59
2019-05-10T15:17:55.081Z,93685.84
2019-05-10T15:20:21.373Z,93687.72
2019-05-10T15:22:49.988Z,93682.70
2019-05-10T15:25:18.773Z,93677.98
2019-05-10T15:27:47.439Z,93673.03
2019-05-10T15:30:16.582Z,93676.70
2019-05-10T15:32:45.278Z,93684.80
2019-05-10T15:35:13.900Z,93680.34
2019-05-10T15:37:46.146Z,93680.34
2019-05-10T15:40:13.036Z,93680.34
2019-05-10T15:42:41.832Z,93683.48
2019-05-10T15:45:14.156Z,93674.26
2019-05-10T15:47:50.894Z,93683.66
2019-05-10T15:50:13.824Z,93680.02
2019-05-10T15:52:46.470Z,93682.40
2019-05-10T15:55:16.489Z,93679.84
2019-05-10T15:57:43.721Z,93679.25
2019-05-10T16:00:12.412Z,93683.16
2019-05-10T16:02:41.093Z,93679.25
2019-05-10T16:05:25.610Z,93679.55
2019-05-10T16:07:40.213Z,93682.17
2019-05-10T16:10:09.352Z,93681.38
2019-05-10T16:12:42.896Z,93685.09
2019-05-10T16:15:13.923Z,93682.47
2019-05-10T16:17:38.830Z,93690.59
2019-05-10T16:20:08.195Z,93681.19
2019-05-10T16:22:36.897Z,93689.03
2019-05-10T16:25:06.492Z,93687.98
2019-05-10T16:27:40.450Z,93688.27
2019-05-10T16:30:12.126Z,93688.27
2019-05-10T16:32:40.869Z,93689.58
2019-05-10T16:35:12.726Z,93693.48
2019-05-10T16:37:40.030Z,93692.44
2019-05-10T16:40:09.048Z,93695.84
2019-05-10T16:42:37.821Z,93691.41
2019-05-10T16:45:06.806Z,93693.48
2019-05-10T16:47:35.495Z,93695.08
2019-05-10T16:50:06.490Z,93699.80
2019-05-10T16:52:35.225Z,93695.08
2019-05-10T16:55:05.561Z,93702.42
2019-05-10T16:57:37.450Z,93703.21
2019-05-10T17:00:08.618Z,93705.56
2019-05-10T17:02:42.213Z,93705.03
2019-05-10T17:05:09.605Z,93716.53
2019-05-10T17:07:39.463Z,93714.42
2019-05-10T17:10:08.755Z,93720.97
2019-05-10T17:12:37.478Z,93721.24
2019-05-10T17:15:06.715Z,93722.27
2019-05-10T17:17:37.015Z,93719.41
2019-05-10T17:20:13.313Z,93718.62
2019-05-10T17:22:37.443Z,93720.17
2019-05-10T17:25:11.072Z,93723.83
2019-05-10T17:27:39.850Z,93730.84
2019-05-10T17:30:09.071Z,93735.24
2019-05-10T17:32:37.693Z,93737.55
2019-05-10T17:35:07.785Z,93742.27
2019-05-10T17:37:37.642Z,93746.42
2019-05-10T17:40:10.628Z,93739.33
2019-05-10T17:42:43.019Z,93747.49
2019-05-10T17:45:11.459Z,93754.24
2019-05-10T17:47:40.152Z,93756.25
2019-05-10T17:50:09.990Z,93767.45
2019-05-10T17:52:38.730Z,93769.83
2019-05-10T17:55:11.027Z,93770.31
2019-05-10T17:57:38.117Z,93765.09
2019-05-10T18:00:11.418Z,93763.98
2019-05-10T18:02:40.174Z,93770.84
2019-05-10T18:05:08.970Z,93780.80
2019-05-10T18:07:37.608Z,93783.72
2019-05-10T18:10:07.177Z,93781.16
2019-05-10T18:12:35.822Z,93783.18
2019-05-10T18:15:06.740Z,93794.83
2019-05-10T18:17:35.638Z,93802.08
2019-05-10T18:20:05.901Z,93811.36
2019-05-10T18:22:42.109Z,93812.48
2019-05-10T18:25:05.392Z,93813.66
2019-05-10T18:27:34.040Z,93814.94
2019-05-10T18:30:02.796Z,93807.74
2019-05-10T18:32:35.672Z,93816.81
2019-05-10T18:35:13.617Z,93816.72
2019-05-10T18:37:32.324Z,93816.78
2019-05-10T18:40:01.078Z,93822.14
2019-05-10T18:42:29.779Z,93819.67
2019-05-10T18:44:58.541Z,93828.05
2019-05-10T18:47:27.280Z,93834.50
2019-05-10T18:49:56.007Z,93836.03
2019-05-10T18:52:24.742Z,93837.06
2019-05-10T18:54:53.450Z,93834.97
2019-05-10T18:57:22.088Z,93833.44
2019-05-10T18:59:50.790Z,93839.05
2019-05-10T19:02:19.946Z,93843.16
2019-05-10T19:04:52.072Z,93847.49
2019-05-10T19:07:19.508Z,93849.53
2019-05-10T19:09:48.498Z,93843.67
2019-05-10T19:12:21.361Z,93850.98
2019-05-10T19:14:47.813Z,93856.31
2019-05-10T19:17:16.554Z,93855.39
2019-05-10T19:19:45.302Z,93862.77
2019-05-10T19:22:14.104Z,93865.62
2019-05-10T19:24:42.961Z,93875.29
2019-05-10T19:27:11.807Z,93886.43
2019-05-10T19:29:45.634Z,93885.88
2019-05-10T19:32:17.319Z,93892.48
2019-05-10T19:34:41.489Z,93890.35
2019-05-10T19:37:10.256Z,93896.89
2019-05-10T19:39:39.105Z,93894.86
2019-05-10T19:42:07.841Z,93896.73
2019-05-10T19:44:40.496Z,93896.28
2019-05-10T19:47:11.034Z,93906.91
2019-05-10T19:49:38.543Z,93907.97
2019-05-10T19:52:07.540Z,93907.26
2019-05-10T19:54:36.362Z,93917.20
2019-05-10T19:57:15.625Z,93920.83
2019-05-10T19:59:37.193Z,93921.11
2019-05-10T20:02:07.511Z,93925.65
2019-05-10T20:04:40.949Z,93934.19
2019-05-10T20:07:09.619Z,93932.83
2019-05-10T20:09:38.362Z,93943.80
2019-05-10T20:12:07.080Z,93951.37
2019-05-10T20:14:35.818Z,93949.16
2019-05-10T20:17:06.223Z,93957.81
2019-05-10T20:19:34.845Z,93966.08
2019-05-10T20:22:03.486Z,93959.31
2019-05-10T20:24:32.187Z,93957.77
2019-05-10T20:27:00.938Z,93969.19
2019-05-10T20:29:29.572Z,93973.03
2019-05-10T20:31:58.325Z,93973.01
2019-05-10T20:34:27.032Z,93981.20
2019-05-10T20:36:55.835Z,93976.00
2019-05-10T20:39:24.845Z,93973.80
2019-05-10T20:41:53.577Z,93968.55
2019-05-10T20:44:22.206Z,93972.34
2019-05-10T20:46:52.456Z,93980.69
2019-05-10T20:49:21.108Z,93980.34
2019-05-10T20:51:49.835Z,93982.84
2019-05-10T20:54:18.544Z,93979.23
2019-05-10T20:56:47.213Z,93977.15
2019-05-10T20:59:16.037Z,93976.95
2019-05-10T21:01:44.662Z,93970.30
2019-05-10T21:04:13.339Z,93982.22
2019-05-10T21:06:41.975Z,93978.89
2019-05-10T21:09:10.675Z,93980.73
2019-05-10T21:11:39.365Z,93977.28
2019-05-10T21:14:08.031Z,93974.48
2019-05-10T21:16:36.755Z,93972.42
2019-05-10T21:19:05.447Z,93975.20
2019-05-10T21:21:34.082Z,93970.30
2019-05-10T21:24:02.817Z,93969.70
2019-05-10T21:26:32.131Z,93970.05
2019-05-10T21:29:00.816Z,93967.83
2019-05-10T21:31:29.550Z,93966.47
2019-05-10T21:34:09.161Z,93975.54
2019-05-10T21:36:28.594Z,93976.50
2019-05-10T21:38:57.288Z,93972.11
2019-05-10T21:41:25.900Z,93971.47
2019-05-10T21:43:54.676Z,93974.66
2019-05-10T21:46:23.352Z,93975.52
2019-05-10T21:48:52.089Z,93976.88
2019-05-10T21:51:21.803Z,93974.68
2019-05-10T21:53:50.377Z,93979.41
2019-05-10T21:56:19.072Z,93975.66
2019-05-10T21:58:47.691Z,93967.16
2019-05-10T22:01:17.016Z,93962.70
2019-05-10T22:03:45.691Z,93966.60
2019-05-10T22:06:14.756Z,93962.48
2019-05-10T22:08:49.385Z,93957.67
2019-05-10T22:11:13.909Z,93954.37
2019-05-10T22:13:42.605Z,93959.70
2019-05-10T22:16:11.230Z,93962.42
2019-05-10T22:18:39.914Z,93959.05
2019-05-10T22:21:08.557Z,93971.06
2019-05-10T22:23:37.234Z,93964.44
2019-05-10T22:26:07.431Z,93965.02
2019-05-10T22:28:36.144Z,93963.22
2019-05-10T22:31:04.853Z,93955.65
2019-05-10T22:33:33.559Z,93952.27
2019-05-10T22:36:02.194Z,93950.47
2019-05-10T22:38:30.876Z,93948.45
2019-05-10T22:40:59.550Z,93947.33
2019-05-10T22:43:28.165Z,93939.38
2019-05-10T22:45:56.874Z,93938.79
2019-05-10T22:48:25.504Z,93933.02
2019-05-10T22:50:54.204Z,93931.03
2019-05-10T22:53:22.976Z,93930.75
2019-05-10T22:55:51.586Z,93925.77
2019-05-10T22:58:20.285Z,93926.05
2019-05-10T23:00:49.061Z,93922.83
2019-05-10T23:03:18.045Z,93923.88
2019-05-10T23:05:46.685Z,93919.44
2019-05-10T23:08:15.295Z,93924.27
2019-05-10T23:10:45.555Z,93926.06
2019-05-10T23:13:14.240Z,93925.77
2019-05-10T23:15:42.911Z,93925.61
2019-05-10T23:18:11.546Z,93928.99
2019-05-10T23:20:40.249Z,93925.69
2019-05-10T23:23:08.878Z,93926.48
2019-05-10T23:25:37.587Z,93926.78
2019-05-10T23:28:06.208Z,93927.57
2019-05-10T23:30:34.879Z,93925.07
2019-05-10T23:33:05.250Z,93932.29
2019-05-10T23:35:33.928Z,93926.31
2019-05-10T23:38:02.569Z,93926.36
2019-05-10T23:40:31.263Z,93927.86
2019-05-10T23:42:59.898Z,93929.41
2019-05-10T23:45:28.562Z,93927.22
2019-05-10T23:47:58.717Z,93922.41
2019-05-10T23:50:27.423Z,93921.49
2019-05-10T23:52:56.134Z,93924.55
2019-05-10T23:55:24.764Z,93933.52
2019-05-10T23:57:53.441Z,93931.52
